Middleton Island, Alaska
Current Conditions -  °F | °C
As of 5:36 PM on Friday 24 Oct 2014 (Local Time) from PAMD Reporting Station
Overcast Overcast  
Wind Chill:   Ceiling: 3500
Heat Index:   Visibility: 10mi
Dew Point:   Wind: 7mph
Humidity: 71%   Direction: 160°SSE
Pressure: 29.74"   Gusts: NA
Location:  59.43°N, 146.33°W
Report Text: PAMD 250136Z 16006KT 10SM OVC035 08/03 A2974 RMK AO1
Loading
Personal Weather Stations






























Interactive Weather Map
Tropical Storm Tracking
New forecast layout! Learn more

10-Day Weather Forecast

Advertisements
Track Severe Weather on mobile